Airfield :
LOGIN :

Register | Disclaimer

   EN    FR    IT 

 










Legend :    VFR   Marginal VFR   IFR   Intensive IFR   Very Intensive IFR
Visi :
Ceiling :
>= 8 km
>= 3000ft
5 to 8 km
1000 to 3000 ft
1500m to 5 km
500 to 1000 ft
800 to 1500m
200 to 500 ft
< 800m
< 200 ft
Symbols :   Thunderstorms  Fog  Heavy snow  Heavy precipitations  Wind > 20 kt
SIGMETs :     Misc.  Thunderstorms  Icing  Turbulence  Mountain Waves  Volcanic Ashes







- Airport Elevation : 776 ft
- IATA code : RMS


ETAR - Ramstein Air Base

CURRENT METAR :
  • 240206Z 08005KT 3600 BR CLR 00/M01 A3030 RMK AO2A SLP268 $

EXPIRED METARs :
  • 240156Z AUTO 07005KT 3000 BR CLR M01/M02 A3031 RMK AO2 SLP271 T10101017 $
  • 240001Z 00000KT 5000 BR CLR 01/00 A3034 RMK SLP282 $
  • 232336Z AUTO 00000KT 4400 BR CLR 01/00 A3034 RMK AO2 VIS 4400V6000 SLP282 $

TAF TAF ETAR
Valid from the 24 at 02:00 until the 25 at 08:00 UTC


240208Z 2402/2508 04006KT 8000 BR SCT040 QNH3029INS
BECMG 2405/2406 04006KT 9999 NSW BKN020 QNH3027INS
BECMG 2414/2415 34009KT 9999 BKN030 QNH3027INS
BECMG 2421/2422 32009KT 9999 SCT040 QNH3021INS
BECMG 2506/2507 26012G20KT 9999 BKN030 620402 QNH3024INS TX10/2415Z TNM02/2404Z
No reported NOTAMs for that airfield.



MET'MAP, your aeronautical weather chart ! - Copyright ORBIFLY December 2007 - Disclaimer

ORBIFLY MET'MAP TEAM :

Programming & Development : Alexandra Zaïnal
Concept & Development : Baudouin d'Aumeries
Co-Development & Prog : Marc-Olivier Méhu
Technical & hardware support : Manuel Goepfert

Contact : metmap@orbifly.com




SOURCES & CREDITS :

   NOAA